Time;durP1;ratioP1;P1;durP2;ratioP2;P2;SDS_P1;SDS_P2;PMS_P1;PMS_P2;Temp;Humidity;BMP_temperature;BMP_pressure;BME280_temperature;BME280_humidity;BME280_pressure;Samples;Min_cycle;Max_cycle;Signal;HPM_P1;HPM_P2
2021/05/24 00:00:23;;;;;;;0.40;0.38;;;11.10;86.80;;;;;;4998614;28;20038;-83
2021/05/24 00:02:50;;;;;;;0.40;0.30;;;11.10;86.70;;;;;;4991694;28;20034;-83
2021/05/24 00:05:28;;;;;;;0.30;0.30;;;11.00;88.00;;;;;;4989593;28;20076;-83
2021/05/24 00:07:54;;;;;;;1.75;0.40;;;11.10;87.90;;;;;;5002547;28;20034;-83
2021/05/24 00:10:26;;;;;;;0.45;0.40;;;11.20;87.40;;;;;;4987925;28;20397;-83
2021/05/24 00:12:53;;;;;;;0.40;0.40;;;11.20;86.70;;;;;;4988512;28;20084;-82
2021/05/24 00:15:25;;;;;;;0.50;0.40;;;11.00;88.00;;;;;;4991443;28;20026;-83
2021/05/24 00:17:51;;;;;;;0.45;0.30;;;10.90;87.00;;;;;;5002469;28;20038;-83
2021/05/24 00:20:19;;;;;;;0.50;0.40;;;11.00;88.00;;;;;;4988964;28;20051;-82
2021/05/24 00:22:45;;;;;;;0.40;0.30;;;11.00;87.90;;;;;;4989033;28;20125;-83
2021/05/24 00:25:11;;;;;;;0.40;0.40;;;11.00;88.20;;;;;;4986193;28;20042;-83
2021/05/24 00:27:37;;;;;;;0.45;0.40;;;10.90;87.40;;;;;;4989282;28;20092;-83
2021/05/24 00:30:04;;;;;;;0.47;0.40;;;10.80;87.80;;;;;;4987509;28;20508;-82
2021/05/24 00:32:30;;;;;;;0.47;0.35;;;10.90;87.80;;;;;;4979238;28;20023;-84
2021/05/24 00:34:56;;;;;;;1.02;0.40;;;10.80;87.50;;;;;;4977195;28;20037;-83
2021/05/24 00:37:22;;;;;;;0.60;0.40;;;11.00;88.10;;;;;;4975864;28;20023;-83
2021/05/24 00:39:48;;;;;;;0.32;0.30;;;10.90;87.20;;;;;;4978748;28;20030;-83
2021/05/24 00:42:14;;;;;;;0.52;0.40;;;10.90;87.60;;;;;;4997255;28;20026;-83
2021/05/24 00:44:40;;;;;;;0.40;0.40;;;10.80;87.40;;;;;;5015570;28;20022;-83
2021/05/24 00:47:06;;;;;;;0.43;0.40;;;10.80;87.80;;;;;;4998859;28;20023;-83
2021/05/24 00:49:32;;;;;;;0.43;0.40;;;10.90;87.30;;;;;;4984980;28;20031;-83
2021/05/24 00:51:58;;;;;;;0.30;0.30;;;11.00;87.00;;;;;;4979036;28;20034;-84
2021/05/24 00:54:26;;;;;;;0.50;0.30;;;10.90;87.50;;;;;;4976198;28;20035;-83
2021/05/24 00:56:58;;;;;;;0.32;0.32;;;11.00;88.30;;;;;;4977913;28;20030;-83
2021/05/24 00:59:24;;;;;;;0.50;0.40;;;10.90;86.80;;;;;;4977111;28;20035;-83
2021/05/24 01:01:50;;;;;;;0.50;0.40;;;10.80;87.00;;;;;;4979002;28;20027;-84
2021/05/24 01:04:18;;;;;;;0.47;0.40;;;10.80;87.20;;;;;;4975320;28;20424;-84
2021/05/24 01:06:45;;;;;;;0.52;0.40;;;10.70;88.50;;;;;;4977572;28;20505;-83
2021/05/24 01:09:10;;;;;;;0.40;0.30;;;10.80;87.50;;;;;;4983261;28;20042;-83
2021/05/24 01:11:36;;;;;;;0.60;0.50;;;10.80;87.70;;;;;;4995487;28;20090;-83
2021/05/24 01:14:03;;;;;;;0.47;0.38;;;10.90;87.70;;;;;;4998070;28;20036;-83
2021/05/24 01:16:30;;;;;;;0.40;0.40;;;10.80;87.60;;;;;;4994885;28;20384;-83
2021/05/24 01:18:55;;;;;;;0.40;0.40;;;10.90;87.60;;;;;;4996648;28;20038;-84
2021/05/24 01:21:23;;;;;;;0.60;0.40;;;10.80;87.60;;;;;;5027481;28;20046;-84
2021/05/24 01:23:50;;;;;;;0.40;0.40;;;10.70;87.50;;;;;;4996540;28;20026;-83
2021/05/24 01:26:17;;;;;;;0.47;0.43;;;10.80;87.60;;;;;;4995842;28;20030;-85
2021/05/24 01:28:43;;;;;;;0.40;0.40;;;10.80;87.90;;;;;;4993186;28;20089;-84
2021/05/24 01:31:09;;;;;;;0.60;0.40;;;10.90;87.20;;;;;;4998152;28;20034;-84
2021/05/24 01:33:36;;;;;;;0.60;0.40;;;10.80;87.30;;;;;;4995977;28;20029;-84
2021/05/24 01:36:07;;;;;;;0.40;0.40;;;10.80;87.60;;;;;;4996679;28;20546;-84
2021/05/24 01:38:36;;;;;;;0.60;0.43;;;10.90;87.20;;;;;;4994864;28;20037;-84
2021/05/24 01:41:02;;;;;;;0.47;0.40;;;10.80;87.80;;;;;;4997169;28;20031;-84
2021/05/24 01:43:29;;;;;;;0.63;0.40;;;10.90;87.30;;;;;;4975289;28;20058;-84
2021/05/24 01:45:54;;;;;;;0.40;0.40;;;10.90;87.30;;;;;;4977305;28;20023;-84
2021/05/24 01:48:20;;;;;;;0.38;0.35;;;10.90;88.00;;;;;;4978347;28;20066;-84
2021/05/24 01:50:46;;;;;;;0.65;0.40;;;10.90;87.40;;;;;;4976360;28;20033;-84
2021/05/24 01:53:12;;;;;;;0.45;0.40;;;10.80;87.40;;;;;;4977691;28;20487;-85
2021/05/24 01:55:38;;;;;;;0.50;0.40;;;10.80;88.20;;;;;;4976444;28;20034;-85
2021/05/24 01:58:05;;;;;;;0.40;0.40;;;10.90;88.10;;;;;;4986150;28;20042;-85
2021/05/24 02:00:31;;;;;;;0.50;0.40;;;10.90;87.90;;;;;;4975129;28;20034;-84
2021/05/24 02:02:57;;;;;;;0.50;0.45;;;10.90;87.40;;;;;;4993555;28;20533;-85
2021/05/24 02:05:25;;;;;;;0.60;0.50;;;10.90;87.20;;;;;;5001649;28;20173;-85
2021/05/24 02:07:52;;;;;;;0.50;0.40;;;10.80;87.60;;;;;;4999557;28;20030;-85
2021/05/24 02:10:24;;;;;;;0.43;0.40;;;10.80;88.20;;;;;;5000048;28;20891;-84
2021/05/24 02:12:50;;;;;;;0.60;0.32;;;10.80;87.50;;;;;;4998069;28;20030;-84
2021/05/24 02:15:20;;;;;;;0.50;0.40;;;10.80;87.60;;;;;;5001262;28;20022;-84
2021/05/24 02:17:46;;;;;;;0.68;0.40;;;10.80;87.70;;;;;;4999382;28;20077;-84
2021/05/24 02:20:12;;;;;;;0.68;0.60;;;10.70;88.20;;;;;;4987439;28;20047;-84
2021/05/24 02:22:38;;;;;;;0.50;0.40;;;10.80;88.20;;;;;;4981036;28;20039;-84
2021/05/24 02:25:06;;;;;;;0.63;0.50;;;10.80;88.00;;;;;;5011161;28;20132;-85
2021/05/24 02:27:32;;;;;;;0.70;0.50;;;10.80;88.20;;;;;;4984579;28;20846;-84
2021/05/24 02:29:57;;;;;;;0.50;0.50;;;10.80;88.00;;;;;;4979597;28;20027;-85
2021/05/24 02:32:23;;;;;;;0.60;0.50;;;10.90;87.60;;;;;;4982135;28;20031;-84
2021/05/24 02:34:50;;;;;;;0.60;0.50;;;10.90;87.80;;;;;;4979309;28;20390;-84
2021/05/24 02:37:16;;;;;;;0.43;0.40;;;10.80;88.40;;;;;;4980852;28;20021;-84
2021/05/24 02:39:42;;;;;;;0.77;0.50;;;10.80;87.70;;;;;;4984053;28;20038;-84
2021/05/24 02:42:07;;;;;;;0.50;0.40;;;10.80;87.70;;;;;;4998806;28;20026;-83
2021/05/24 02:44:33;;;;;;;0.50;0.50;;;10.80;88.10;;;;;;4999997;28;20133;-85
2021/05/24 02:46:59;;;;;;;0.70;0.50;;;10.80;87.60;;;;;;4992785;28;20038;-85
2021/05/24 02:49:25;;;;;;;0.60;0.50;;;10.80;88.00;;;;;;4981534;28;20042;-84
2021/05/24 02:51:51;;;;;;;0.85;0.68;;;10.80;88.20;;;;;;4979254;28;20030;-86
2021/05/24 02:54:19;;;;;;;0.65;0.50;;;10.80;88.60;;;;;;4980209;28;20030;-85
2021/05/24 02:56:45;;;;;;;0.60;0.50;;;10.80;88.30;;;;;;4979240;28;20035;-84
2021/05/24 02:59:10;;;;;;;0.60;0.50;;;10.80;88.20;;;;;;4979347;28;20030;-85
2021/05/24 03:01:36;;;;;;;0.68;0.47;;;10.80;88.10;;;;;;5012931;28;20033;-85
2021/05/24 03:04:03;;;;;;;0.50;0.50;;;10.80;88.00;;;;;;4977530;28;20133;-85
2021/05/24 03:06:29;;;;;;;0.70;0.50;;;10.90;87.90;;;;;;4981362;28;20019;-86
2021/05/24 03:08:55;;;;;;;0.70;0.50;;;10.80;88.20;;;;;;4977517;28;20093;-85
2021/05/24 03:11:22;;;;;;;0.85;0.50;;;10.90;87.80;;;;;;4979280;28;20081;-85
2021/05/24 03:13:49;;;;;;;0.70;0.40;;;10.90;87.80;;;;;;4980278;28;20073;-84
2021/05/24 03:16:15;;;;;;;0.60;0.50;;;10.90;88.30;;;;;;4978890;28;20034;-84
2021/05/24 03:18:41;;;;;;;0.75;0.50;;;10.90;88.00;;;;;;4981235;28;20030;-84
2021/05/24 03:21:07;;;;;;;0.77;0.50;;;10.90;88.80;;;;;;4977369;28;20142;-84
2021/05/24 03:23:33;;;;;;;0.70;0.50;;;11.00;88.00;;;;;;4981549;28;20035;-84
2021/05/24 03:25:59;;;;;;;0.70;0.50;;;11.00;87.70;;;;;;4978555;28;20108;-85
2021/05/24 03:28:24;;;;;;;0.80;0.50;;;11.10;88.70;;;;;;5024980;28;20081;-85
2021/05/24 03:30:50;;;;;;;0.68;0.57;;;11.10;87.90;;;;;;4986911;28;20046;-84
2021/05/24 03:33:15;;;;;;;0.68;0.57;;;11.10;87.40;;;;;;5011514;28;20032;-84
2021/05/24 03:35:41;;;;;;;0.77;0.60;;;11.10;88.10;;;;;;4999813;28;20772;-84
2021/05/24 03:38:07;;;;;;;0.63;0.50;;;11.10;87.50;;;;;;4997474;28;20085;-84
2021/05/24 03:40:33;;;;;;;0.50;0.40;;;11.20;87.20;;;;;;4998224;28;20065;-84
2021/05/24 03:42:59;;;;;;;0.82;0.60;;;11.00;87.30;;;;;;4995863;28;20030;-83
2021/05/24 03:45:30;;;;;;;0.55;0.43;;;11.00;87.70;;;;;;4982258;28;20410;-85
2021/05/24 03:47:56;;;;;;;0.80;0.50;;;10.80;87.90;;;;;;4997657;28;20043;-85
2021/05/24 03:50:24;;;;;;;1.05;0.50;;;10.80;88.20;;;;;;5025256;28;20154;-85
2021/05/24 03:52:50;;;;;;;0.65;0.50;;;10.70;88.60;;;;;;4997280;28;20032;-85
2021/05/24 03:55:19;;;;;;;0.75;0.50;;;10.80;88.90;;;;;;4978344;28;20023;-85
2021/05/24 03:57:47;;;;;;;0.80;0.57;;;10.80;88.50;;;;;;4979652;28;20026;-85
2021/05/24 04:00:13;;;;;;;0.90;0.68;;;10.70;89.10;;;;;;4988271;28;20029;-85
2021/05/24 04:02:40;;;;;;;0.95;0.70;;;10.70;89.00;;;;;;4999067;28;20030;-85
2021/05/24 04:07:49;;;;;;;0.90;0.50;;;10.60;89.00;;;;;;4978117;28;20045;-85
2021/05/24 04:10:17;;;;;;;1.40;0.70;;;10.60;89.10;;;;;;4980258;28;20030;-85
2021/05/24 04:12:43;;;;;;;0.70;0.50;;;10.70;88.80;;;;;;4977604;28;20116;-85
2021/05/24 04:15:09;;;;;;;0.73;0.50;;;10.60;88.80;;;;;;4980414;28;20113;-84
2021/05/24 04:17:37;;;;;;;0.90;0.60;;;10.60;88.90;;;;;;4977789;28;20015;-83
2021/05/24 04:20:06;;;;;;;0.80;0.50;;;10.60;89.10;;;;;;4979965;28;20130;-84
2021/05/24 04:22:33;;;;;;;1.08;0.50;;;10.60;89.20;;;;;;4976292;28;20026;-85
2021/05/24 04:24:58;;;;;;;1.17;0.60;;;10.70;89.30;;;;;;4975562;28;20027;-86
2021/05/24 04:27:24;;;;;;;0.65;0.50;;;10.50;89.20;;;;;;4985610;28;20019;-85
2021/05/24 04:29:50;;;;;;;0.70;0.50;;;10.50;89.30;;;;;;4982598;28;20039;-85
2021/05/24 04:32:16;;;;;;;1.08;0.70;;;10.50;89.50;;;;;;5011509;28;20029;-84
2021/05/24 04:34:41;;;;;;;1.30;0.60;;;10.60;89.30;;;;;;5008604;28;20117;-85
2021/05/24 04:37:07;;;;;;;0.80;0.60;;;10.60;89.10;;;;;;4978613;28;20053;-84
2021/05/24 04:39:32;;;;;;;1.00;0.77;;;10.70;89.30;;;;;;4977585;28;20031;-85
2021/05/24 04:41:58;;;;;;;1.15;0.70;;;10.70;89.10;;;;;;4985661;28;20022;-85
2021/05/24 04:44:25;;;;;;;0.65;0.50;;;10.80;89.00;;;;;;5011335;28;20038;-84
2021/05/24 04:46:50;;;;;;;1.30;0.57;;;10.90;88.30;;;;;;4977175;28;20059;-85
2021/05/24 04:49:16;;;;;;;0.70;0.57;;;10.90;88.20;;;;;;4986690;28;20038;-85
2021/05/24 04:51:42;;;;;;;1.35;0.68;;;11.00;88.00;;;;;;4996423;28;20436;-85
2021/05/24 04:54:09;;;;;;;1.55;0.60;;;10.90;88.20;;;;;;4985285;28;20030;-86
2021/05/24 04:56:35;;;;;;;1.05;0.60;;;10.90;88.00;;;;;;4977204;28;20019;-85
2021/05/24 04:59:01;;;;;;;0.90;0.60;;;10.90;88.70;;;;;;4977040;28;20085;-85
2021/05/24 05:01:27;;;;;;;0.95;0.55;;;10.90;88.00;;;;;;5008323;28;20035;-85
2021/05/24 05:03:52;;;;;;;1.02;0.73;;;10.90;88.10;;;;;;4977043;28;20039;-85
2021/05/24 05:06:18;;;;;;;1.45;0.73;;;10.90;88.30;;;;;;4976836;28;20094;-85
2021/05/24 05:08:44;;;;;;;0.98;0.70;;;10.80;87.80;;;;;;4977249;28;20505;-85
2021/05/24 05:11:09;;;;;;;0.63;0.50;;;10.80;88.00;;;;;;4975322;28;20026;-85
2021/05/24 05:13:36;;;;;;;1.08;0.60;;;10.80;87.60;;;;;;4982772;28;20404;-85
2021/05/24 05:16:02;;;;;;;1.20;0.68;;;10.70;87.60;;;;;;4994971;28;20044;-84
2021/05/24 05:18:28;;;;;;;1.13;0.60;;;10.70;87.60;;;;;;4993568;28;20030;-86
2021/05/24 05:20:53;;;;;;;1.13;0.68;;;10.70;88.10;;;;;;4994593;28;20050;-85
2021/05/24 05:23:19;;;;;;;0.63;0.50;;;10.80;87.70;;;;;;4994782;28;20065;-85
2021/05/24 05:25:45;;;;;;;1.20;0.55;;;10.90;87.40;;;;;;4994755;28;20026;-85
2021/05/24 05:28:11;;;;;;;1.23;0.70;;;10.90;87.40;;;;;;4994747;28;20042;-85
2021/05/24 05:30:37;;;;;;;0.63;0.50;;;10.80;87.30;;;;;;4996164;28;20023;-85
2021/05/24 05:33:02;;;;;;;1.60;0.60;;;10.80;87.90;;;;;;4989612;28;20023;-85
2021/05/24 05:35:28;;;;;;;1.17;0.70;;;10.90;87.20;;;;;;4983825;28;20038;-85
2021/05/24 05:37:54;;;;;;;1.27;0.70;;;10.90;87.50;;;;;;4998950;28;20095;-85
2021/05/24 05:40:20;;;;;;;0.98;0.70;;;10.80;86.70;;;;;;4998027;28;20196;-85
2021/05/24 05:42:47;;;;;;;1.13;0.70;;;10.80;87.10;;;;;;4998564;28;20034;-85
2021/05/24 05:45:15;;;;;;;1.50;0.60;;;10.80;87.10;;;;;;4990255;28;20026;-85
2021/05/24 05:47:41;;;;;;;1.73;0.80;;;10.80;86.60;;;;;;4979102;28;20062;-85
2021/05/24 05:50:08;;;;;;;1.05;0.65;;;10.80;86.60;;;;;;4994064;28;20030;-85
2021/05/24 05:52:35;;;;;;;1.67;0.90;;;10.80;87.00;;;;;;4999889;28;20049;-85
2021/05/24 05:55:02;;;;;;;1.00;0.70;;;10.80;86.90;;;;;;5031240;28;20033;-84
2021/05/24 05:57:28;;;;;;;1.33;0.82;;;10.80;87.00;;;;;;4997877;28;20054;-85
2021/05/24 05:59:53;;;;;;;1.60;0.80;;;10.80;86.50;;;;;;4999558;28;20030;-85
2021/05/24 06:02:19;;;;;;;1.08;0.60;;;10.80;86.00;;;;;;4999593;28;20435;-86
2021/05/24 06:04:45;;;;;;;1.40;0.70;;;10.90;86.60;;;;;;4996848;28;20026;-85
2021/05/24 06:07:10;;;;;;;1.17;0.80;;;11.00;85.90;;;;;;4998160;28;20023;-85
2021/05/24 06:09:36;;;;;;;1.13;0.77;;;11.10;85.40;;;;;;4999394;28;20018;-79
2021/05/24 06:12:02;;;;;;;1.52;0.80;;;11.20;85.10;;;;;;4999294;28;20061;-79
2021/05/24 06:14:28;;;;;;;1.30;0.60;;;11.20;84.60;;;;;;4990143;28;20121;-79
2021/05/24 06:16:53;;;;;;;1.08;0.75;;;11.20;84.70;;;;;;4979559;28;20033;-78
2021/05/24 06:19:22;;;;;;;1.15;0.80;;;11.30;84.50;;;;;;4993015;28;20025;-82
2021/05/24 06:21:48;;;;;;;1.50;0.73;;;11.50;83.90;;;;;;4997237;28;20058;-83
2021/05/24 06:24:14;;;;;;;1.35;0.80;;;11.50;82.90;;;;;;4998089;28;20030;-82
2021/05/24 06:26:40;;;;;;;1.77;0.82;;;11.60;83.40;;;;;;4999131;28;20057;-82
2021/05/24 06:29:05;;;;;;;1.92;0.80;;;11.70;83.40;;;;;;4997316;28;20038;-83
2021/05/24 06:31:31;;;;;;;1.77;0.90;;;11.80;82.60;;;;;;4997927;28;20548;-82
2021/05/24 06:33:57;;;;;;;1.73;0.80;;;12.10;82.30;;;;;;4997727;28;20169;-83
2021/05/24 06:36:23;;;;;;;1.65;0.85;;;12.30;81.00;;;;;;4998764;28;20022;-80
2021/05/24 06:38:48;;;;;;;0.98;0.52;;;12.60;80.80;;;;;;4996593;28;20054;-80
2021/05/24 06:41:15;;;;;;;1.35;0.70;;;12.80;79.70;;;;;;4998323;28;20027;-80
2021/05/24 06:43:41;;;;;;;1.13;0.73;;;12.90;78.70;;;;;;4994838;28;20034;-81
2021/05/24 06:46:07;;;;;;;1.75;0.70;;;13.00;78.50;;;;;;4993810;28;20049;-80
2021/05/24 06:48:32;;;;;;;1.58;0.70;;;13.00;78.90;;;;;;4993997;28;20030;-84
2021/05/24 06:50:58;;;;;;;1.55;0.68;;;12.90;78.80;;;;;;4996377;28;20058;-83
2021/05/24 06:53:24;;;;;;;1.25;0.77;;;13.00;79.70;;;;;;4989728;28;20509;-81
2021/05/24 06:55:49;;;;;;;2.33;1.00;;;13.00;78.80;;;;;;4996592;28;20548;-81
2021/05/24 06:58:15;;;;;;;1.65;0.90;;;13.10;79.10;;;;;;4996365;28;20026;-80
2021/05/24 07:00:41;;;;;;;1.48;0.90;;;13.10;78.40;;;;;;4995316;28;20095;-80
2021/05/24 07:03:06;;;;;;;1.52;0.70;;;12.90;78.80;;;;;;4996279;28;20022;-81
2021/05/24 07:05:32;;;;;;;1.35;0.80;;;12.80;80.30;;;;;;4992101;28;20038;-82
2021/05/24 07:07:59;;;;;;;1.33;0.77;;;12.60;80.80;;;;;;4996472;28;20026;-80
2021/05/24 07:10:25;;;;;;;0.55;0.43;;;12.10;76.70;;;;;;4962565;28;20050;-80
2021/05/24 07:12:50;;;;;;;0.85;0.60;;;11.50;75.60;;;;;;4993524;28;20035;-81
2021/05/24 07:15:16;;;;;;;1.00;0.52;;;11.20;77.30;;;;;;4996522;28;20024;-81
2021/05/24 07:17:42;;;;;;;0.75;0.60;;;11.00;77.10;;;;;;4995288;28;20030;-80
2021/05/24 07:20:08;;;;;;;0.80;0.50;;;10.90;77.80;;;;;;4996076;28;20113;-81
2021/05/24 07:22:35;;;;;;;1.00;0.68;;;10.80;76.90;;;;;;5026021;28;20026;-79
2021/05/24 07:25:02;;;;;;;0.88;0.45;;;10.80;75.90;;;;;;4993311;28;20028;-80
2021/05/24 07:27:28;;;;;;;1.00;0.50;;;10.70;77.00;;;;;;4994183;28;20033;-81
2021/05/24 07:29:53;;;;;;;1.17;0.60;;;10.40;80.10;;;;;;5028492;28;20030;-80
2021/05/24 07:32:19;;;;;;;1.10;0.70;;;10.50;81.10;;;;;;5028308;28;20053;-80
2021/05/24 07:34:45;;;;;;;1.20;0.80;;;10.50;81.50;;;;;;4996135;28;20477;-81
2021/05/24 07:37:11;;;;;;;1.15;0.73;;;10.70;81.30;;;;;;4997001;28;20476;-80
2021/05/24 07:39:36;;;;;;;0.90;0.65;;;10.90;82.10;;;;;;4997176;28;20029;-81
2021/05/24 07:42:04;;;;;;;0.90;0.45;;;11.00;80.60;;;;;;4995910;28;20053;-79
2021/05/24 07:44:32;;;;;;;1.02;0.60;;;11.10;79.80;;;;;;4995173;28;20030;-81
2021/05/24 07:46:59;;;;;;;0.45;0.40;;;11.10;79.00;;;;;;4996942;28;20061;-88
2021/05/24 07:49:25;;;;;;;0.90;0.50;;;11.10;79.60;;;;;;4980316;28;20050;-80
2021/05/24 07:51:51;;;;;;;0.80;0.52;;;11.20;79.80;;;;;;4983762;28;20030;-76
2021/05/24 07:54:17;;;;;;;0.82;0.50;;;11.20;77.90;;;;;;4991664;28;20019;-78
2021/05/24 07:56:44;;;;;;;1.00;0.70;;;11.70;78.10;;;;;;4995271;28;20091;-79
2021/05/24 07:59:10;;;;;;;0.35;0.32;;;15.50;67.90;;;;;;4994589;28;20396;-81
2021/05/24 08:01:36;;;;;;;0.32;0.20;;;17.50;58.90;;;;;;4995650;28;20038;-80
2021/05/24 08:04:02;;;;;;;0.73;0.40;;;17.90;60.30;;;;;;4994916;28;20084;-81
2021/05/24 08:06:27;;;;;;;0.50;0.30;;;17.00;59.50;;;;;;4996418;28;20030;-81
2021/05/24 08:08:53;;;;;;;0.45;0.20;;;19.80;53.70;;;;;;4995473;28;20043;-79
2021/05/24 08:11:19;;;;;;;0.80;0.25;;;20.80;50.30;;;;;;4995611;28;20408;-80
2021/05/24 08:13:45;;;;;;;0.52;0.20;;;21.50;50.80;;;;;;4996504;28;20396;-79
2021/05/24 08:16:13;;;;;;;0.40;0.20;;;21.40;48.40;;;;;;4994853;28;20712;-80
2021/05/24 08:18:41;;;;;;;0.68;0.30;;;19.80;49.10;;;;;;4995371;28;20033;-79
2021/05/24 08:21:07;;;;;;;0.35;0.10;;;21.00;51.30;;;;;;4996097;28;20121;-80
2021/05/24 08:23:33;;;;;;;0.60;0.20;;;21.80;45.00;;;;;;4992617;28;20054;-80
2021/05/24 08:26:00;;;;;;;0.60;0.20;;;22.80;43.30;;;;;;4996360;28;20042;-81
2021/05/24 08:28:27;;;;;;;0.35;0.20;;;22.60;43.10;;;;;;4995176;28;20041;-79
2021/05/24 08:30:54;;;;;;;0.52;0.20;;;23.20;42.50;;;;;;4996252;28;20117;-80
2021/05/24 08:33:21;;;;;;;0.30;0.10;;;24.50;38.80;;;;;;4995180;28;20022;-80
2021/05/24 08:35:47;;;;;;;0.45;0.10;;;23.50;41.40;;;;;;4990286;28;20030;-80
2021/05/24 08:38:13;;;;;;;0.40;0.20;;;22.00;42.90;;;;;;4996026;28;20018;-82
2021/05/24 08:40:41;;;;;;;0.30;0.10;;;22.00;43.50;;;;;;4994397;28;20030;-80
2021/05/24 08:43:07;;;;;;;0.50;0.20;;;21.50;42.80;;;;;;4989954;28;20027;-79
2021/05/24 08:45:38;;;;;;;0.75;0.30;;;21.70;43.50;;;;;;4982581;28;20072;-79
2021/05/24 08:48:08;;;;;;;0.32;0.10;;;23.00;41.00;;;;;;4995195;28;20026;-82
2021/05/24 08:50:35;;;;;;;0.43;0.13;;;23.10;41.00;;;;;;4994571;28;20057;-81
2021/05/24 08:53:03;;;;;;;0.47;0.10;;;24.80;40.30;;;;;;4994598;28;20468;-82
2021/05/24 08:55:29;;;;;;;0.40;0.15;;;24.30;37.50;;;;;;4994836;28;20153;-83
2021/05/24 08:57:55;;;;;;;0.32;0.10;;;24.50;38.70;;;;;;4993541;28;20022;-79
2021/05/24 09:00:21;;;;;;;0.60;0.10;;;24.70;37.40;;;;;;4994498;28;20140;-81
2021/05/24 09:02:50;;;;;;;0.50;0.10;;;25.30;35.90;;;;;;4993925;28;20113;-80
2021/05/24 09:05:16;;;;;;;0.63;0.20;;;25.90;37.40;;;;;;4995675;28;20030;-80
2021/05/24 09:08:04;;;;;;;0.73;0.20;;;24.90;37.00;;;;;;4994158;28;20034;-80
2021/05/24 09:10:31;;;;;;;0.50;0.10;;;26.00;34.80;;;;;;4991037;28;20409;-81
2021/05/24 09:12:57;;;;;;;0.35;0.15;;;25.90;35.50;;;;;;5007102;28;20030;-80
2021/05/24 09:15:24;;;;;;;0.40;0.20;;;25.80;34.80;;;;;;4985625;28;20109;-80
2021/05/24 09:17:53;;;;;;;0.52;0.22;;;26.50;34.90;;;;;;4993329;28;20030;-79
2021/05/24 09:20:18;;;;;;;0.63;0.20;;;27.80;34.00;;;;;;4987847;28;20062;-79
2021/05/24 09:23:03;;;;;;;0.65;0.20;;;26.60;35.40;;;;;;4992919;28;20919;-79
2021/05/24 09:25:51;;;;;;;0.57;0.20;;;26.70;33.50;;;;;;4991599;28;20026;-79
2021/05/24 09:28:37;;;;;;;0.60;0.20;;;24.70;35.60;;;;;;4983926;28;20035;-80
2021/05/24 09:31:17;;;;;;;0.40;0.10;;;26.10;35.50;;;;;;4987303;28;20019;-81
2021/05/24 09:33:50;;;;;;;0.52;0.20;;;24.90;35.00;;;;;;4985261;28;20393;-81
2021/05/24 09:36:16;;;;;;;1.10;0.25;;;23.00;38.10;;;;;;4986940;28;20070;-79
2021/05/24 09:38:46;;;;;;;0.80;0.20;;;22.80;38.90;;;;;;4983611;28;20026;-79
2021/05/24 09:41:14;;;;;;;0.57;0.30;;;22.40;40.10;;;;;;4989687;28;20409;-78
2021/05/24 09:43:42;;;;;;;0.70;0.20;;;22.30;40.10;;;;;;4995536;28;20026;-80
2021/05/24 09:46:18;;;;;;;0.57;0.20;;;23.80;38.10;;;;;;4995658;28;20093;-79
2021/05/24 09:48:49;;;;;;;0.60;0.20;;;25.00;35.60;;;;;;4990807;28;20050;-79
2021/05/24 09:51:18;;;;;;;0.30;0.10;;;26.00;31.90;;;;;;4981694;28;20045;-80
2021/05/24 09:54:06;;;;;;;0.75;0.20;;;25.70;33.90;;;;;;4997847;28;20642;-79
2021/05/24 09:56:36;;;;;;;0.60;0.22;;;26.90;32.90;;;;;;4984111;28;20035;-80
2021/05/24 09:59:11;;;;;;;0.68;0.30;;;26.90;33.10;;;;;;4995429;28;20043;-81
2021/05/24 10:01:41;;;;;;;0.57;0.20;;;26.00;32.60;;;;;;4989373;28;20054;-84
2021/05/24 10:04:09;;;;;;;1.13;0.20;;;26.60;33.60;;;;;;4987189;28;20049;-82
2021/05/24 10:06:36;;;;;;;0.68;0.20;;;26.30;33.00;;;;;;4984879;28;20042;-83
2021/05/24 10:09:05;;;;;;;0.28;0.10;;;27.90;29.70;;;;;;4993383;28;20485;-88
2021/05/24 10:11:30;;;;;;;;;;;27.20;29.50;;;;;;4995247;28;20037;-84
2021/05/24 10:13:57;;;;;;;0.40;0.10;;;24.50;33.80;;;;;;4994368;28;19909;-85
2021/05/24 10:16:27;;;;;;;0.65;0.20;;;25.80;34.10;;;;;;4995184;28;20030;-90
2021/05/24 10:18:53;;;;;;;0.45;0.15;;;27.50;31.90;;;;;;5019178;28;20018;-84
2021/05/24 10:21:19;;;;;;;0.68;0.20;;;27.80;31.90;;;;;;4992517;28;20050;-81
2021/05/24 10:23:44;;;;;;;0.40;0.20;;;28.90;30.70;;;;;;4996240;28;20062;-91
2021/05/24 10:26:15;;;;;;;0.70;0.17;;;27.20;30.00;;;;;;4994686;28;20049;-88
2021/05/24 10:28:45;;;;;;;0.80;0.22;;;25.80;33.40;;;;;;5029795;28;20092;-89
2021/05/24 10:31:19;;;;;;;0.38;0.20;;;25.80;34.60;;;;;;4996628;28;20026;-85
2021/05/24 10:33:46;;;;;;;0.60;0.20;;;25.50;34.20;;;;;;4997087;28;20117;-82
2021/05/24 10:36:32;;;;;;;0.40;0.20;;;24.60;33.10;;;;;;4997894;28;20550;-88
2021/05/24 10:39:17;;;;;;;0.50;0.15;;;22.80;36.10;;;;;;4993307;28;20030;-85
2021/05/24 10:41:55;;;;;;;0.65;0.20;;;21.00;39.70;;;;;;4998357;28;20441;-90
2021/05/24 10:44:31;;;;;;;0.20;0.10;;;20.70;42.00;;;;;;4992669;28;20404;-81
2021/05/24 10:47:13;;;;;;;0.60;0.30;;;19.90;45.70;;;;;;4995821;28;20064;-83
2021/05/24 10:50:01;;;;;;;0.55;0.20;;;18.90;50.30;;;;;;4992704;28;20022;-84
2021/05/24 10:52:27;;;;;;;0.60;0.20;;;17.80;50.40;;;;;;4990799;28;20030;-81
2021/05/24 10:54:53;;;;;;;0.80;0.40;;;16.80;53.10;;;;;;4992274;28;20037;-80
2021/05/24 10:57:20;;;;;;;0.50;0.20;;;15.20;64.60;;;;;;4992523;28;20035;-80
2021/05/24 10:59:52;;;;;;;0.57;0.30;;;14.50;62.30;;;;;;4990890;28;20030;-80
2021/05/24 11:02:23;;;;;;;0.65;0.20;;;13.70;64.40;;;;;;4990678;28;20023;-81
2021/05/24 11:04:54;;;;;;;0.50;0.30;;;13.40;63.50;;;;;;4989775;28;20031;-80
2021/05/24 11:07:34;;;;;;;0.70;0.38;;;13.20;66.50;;;;;;4981164;28;20106;-84
2021/05/24 11:10:18;;;;;;;0.40;0.20;;;13.80;63.30;;;;;;4986872;28;20037;-82
2021/05/24 11:12:48;;;;;;;0.30;0.20;;;13.80;63.20;;;;;;4991266;28;20037;-83
2021/05/24 11:15:30;;;;;;;0.57;0.40;;;14.70;63.30;;;;;;4988618;28;20030;-83
2021/05/24 11:18:04;;;;;;;0.85;0.30;;;15.70;63.50;;;;;;4961559;28;20065;-83
2021/05/24 11:20:47;;;;;;;0.50;0.30;;;15.90;63.10;;;;;;4992360;28;20055;-80
2021/05/24 11:26:20;;;;;;;0.50;0.30;;;16.60;59.70;;;;;;4992499;28;20037;-83
2021/05/24 11:28:51;;;;;;;0.70;0.30;;;16.90;59.50;;;;;;4990579;28;20073;-82
2021/05/24 11:31:20;;;;;;;0.57;0.30;;;16.60;59.90;;;;;;4993069;28;20030;-83
2021/05/24 11:33:49;;;;;;;0.40;0.20;;;15.90;58.50;;;;;;4994168;28;20023;-83
2021/05/24 11:36:15;;;;;;;0.40;0.22;;;15.00;59.50;;;;;;4991852;28;20050;-82
2021/05/24 11:39:06;;;;;;;0.32;0.20;;;14.60;60.80;;;;;;4989872;28;20034;-82
2021/05/24 11:41:33;;;;;;;0.20;0.20;;;14.20;60.40;;;;;;4988628;28;20026;-81
2021/05/24 11:44:02;;;;;;;0.30;0.30;;;13.90;60.20;;;;;;4988498;28;20050;-82
2021/05/24 11:46:44;;;;;;;0.30;0.22;;;13.60;62.90;;;;;;4991966;28;20026;-82
2021/05/24 11:49:18;;;;;;;0.30;0.28;;;13.20;63.80;;;;;;4994531;28;20027;-85
2021/05/24 11:51:45;;;;;;;0.20;0.20;;;13.00;66.40;;;;;;4994289;28;20033;-84
2021/05/24 11:54:15;;;;;;;0.20;0.20;;;13.40;64.10;;;;;;4993139;28;20113;-83
2021/05/24 11:56:48;;;;;;;0.30;0.30;;;13.60;64.30;;;;;;4995038;28;20033;-83
2021/05/24 11:59:16;;;;;;;0.40;0.30;;;13.80;63.20;;;;;;4994885;28;20053;-86
2021/05/24 12:01:44;;;;;;;0.35;0.30;;;14.20;62.00;;;;;;4996145;28;20031;-84
2021/05/24 12:04:13;;;;;;;0.50;0.30;;;14.30;61.00;;;;;;4995249;28;20420;-84
2021/05/24 12:06:45;;;;;;;0.30;0.20;;;14.40;61.10;;;;;;4995471;28;20026;-84
2021/05/24 12:09:12;;;;;;;0.32;0.28;;;15.10;60.50;;;;;;4995615;28;20034;-84
2021/05/24 12:11:54;;;;;;;0.32;0.30;;;15.20;62.90;;;;;;4996124;28;20532;-84
2021/05/24 12:14:19;;;;;;;0.30;0.20;;;16.00;60.00;;;;;;4994998;28;20030;-85
2021/05/24 12:16:46;;;;;;;0.50;0.30;;;16.50;58.90;;;;;;4993299;28;20023;-84
2021/05/24 12:19:11;;;;;;;0.32;0.20;;;17.00;58.20;;;;;;4996212;28;20058;-84
2021/05/24 12:21:42;;;;;;;0.35;0.20;;;16.40;59.30;;;;;;4995420;28;20492;-83
2021/05/24 12:24:09;;;;;;;;;;;16.00;59.90;;;;;;4996808;28;20073;-84
2021/05/24 12:26:36;;;;;;;0.30;0.20;;;15.50;59.70;;;;;;4995218;28;19917;-84
2021/05/24 12:29:04;;;;;;;0.50;0.30;;;15.80;59.50;;;;;;4995417;28;20022;-84
2021/05/24 12:31:32;;;;;;;0.38;0.30;;;15.80;59.10;;;;;;4994179;28;20101;-85
2021/05/24 12:33:59;;;;;;;0.50;0.32;;;16.40;56.70;;;;;;4995133;28;20424;-86
2021/05/24 12:36:34;;;;;;;0.57;0.30;;;16.80;57.30;;;;;;4999414;28;20030;-85
2021/05/24 12:39:04;;;;;;;0.75;0.30;;;17.00;54.70;;;;;;4997049;28;20543;-83
2021/05/24 12:41:30;;;;;;;;;;;17.00;56.90;;;;;;4995035;28;20492;-81
2021/05/24 12:43:59;;;;;;;0.40;0.20;;;17.30;56.50;;;;;;4994954;28;19957;-83
2021/05/24 12:46:25;;;;;;;0.45;0.30;;;17.20;56.70;;;;;;4994292;28;20034;-83
2021/05/24 12:48:52;;;;;;;0.38;0.30;;;17.40;55.60;;;;;;4995596;28;20038;-81
2021/05/24 12:51:24;;;;;;;0.52;0.30;;;17.60;57.80;;;;;;5008493;28;20102;-83
2021/05/24 12:53:55;;;;;;;0.30;0.20;;;18.00;56.90;;;;;;4998530;28;20093;-82
2021/05/24 12:57:00;;;;;;;0.70;0.40;;;18.40;55.80;;;;;;4995775;28;20018;-85